Alstead, New Hampshire
Current Conditions -  °F | °C
As of 5:54 PM on Tuesday 27 Jan 2015 (Local Time) from KVSF Reporting Station
Light Snow Light Snow  
Wind Chill: -2°   Ceiling: 1500
Heat Index: 11°   Visibility: 0.75mi
Dew Point:   Wind: 9mph
Humidity: 73%   Direction: 10°N
Pressure: 29.74"   Gusts: 18mph
Location:  43.15°N, 72.36°W
Report Text: KVSF 272254Z AUTO 01008G16KT 320V030 3/4SM -SN VV015 M12/M16 A2974 RMK AO2 SLP083 P0000 T11171156 TSNO
Loading
Personal Weather Stations






























Interactive Weather Map New forecast layout! Learn more

10-Day Weather Forecast

Advertisements
Track Severe Weather on mobile